Terminal Aerodrome Forecast
Issued by NWS

Current Version | Previous Version | Graphics & Text | Print | Product List | Glossary On
Versions: 1 2 3 4 5 6 7 8 9 10 11 12 13 14 15 16 17 18 19 20 21
000
FTUS41 KRLX 300858 AAA
TAFCKB
TAF AMD
KCKB 300858Z 3009/0106 00000KT 6SM BR BKN025
     FM301500 22005KT P6SM SCT025 BKN070
     FM301700 22008KT P6SM VCTS BKN060CB
     FM010300 VRB03KT P6SM BKN040=

USA.gov is the U.S. government's official web portal to all federal, state and local government web resources and services.